sensor_id;sensor_type;location;lat;lon;timestamp;temperature;humidity
78876;DHT22;68253;52.506;5.486;2024-02-04T00:00:17;8.60;79.00
78876;DHT22;68253;52.506;5.486;2024-02-04T00:02:44;8.70;79.10
78876;DHT22;68253;52.506;5.486;2024-02-04T00:05:10;8.70;79.30
78876;DHT22;68253;52.506;5.486;2024-02-04T00:07:36;8.80;79.30
78876;DHT22;68253;52.506;5.486;2024-02-04T00:10:02;8.80;79.40
78876;DHT22;68253;52.506;5.486;2024-02-04T00:12:29;8.90;79.60
78876;DHT22;68253;52.506;5.486;2024-02-04T00:14:55;8.90;79.70
78876;DHT22;68253;52.506;5.486;2024-02-04T00:17:21;8.90;79.80
78876;DHT22;68253;52.506;5.486;2024-02-04T00:19:47;9.00;79.80
78876;DHT22;68253;52.506;5.486;2024-02-04T00:22:13;9.00;79.90
78876;DHT22;68253;52.506;5.486;2024-02-04T00:24:39;9.00;80.00
78876;DHT22;68253;52.506;5.486;2024-02-04T00:27:05;9.00;80.10
78876;DHT22;68253;52.506;5.486;2024-02-04T00:29:31;9.10;80.00
78876;DHT22;68253;52.506;5.486;2024-02-04T00:31:58;9.10;80.00
78876;DHT22;68253;52.506;5.486;2024-02-04T00:34:24;9.10;80.00
78876;DHT22;68253;52.506;5.486;2024-02-04T00:36:50;9.10;80.00
78876;DHT22;68253;52.506;5.486;2024-02-04T00:39:16;9.10;80.00
78876;DHT22;68253;52.506;5.486;2024-02-04T00:41:42;9.10;80.00
78876;DHT22;68253;52.506;5.486;2024-02-04T00:44:08;9.20;80.00
78876;DHT22;68253;52.506;5.486;2024-02-04T00:46:34;9.10;79.80
78876;DHT22;68253;52.506;5.486;2024-02-04T00:49:00;9.10;79.80
78876;DHT22;68253;52.506;5.486;2024-02-04T00:51:26;9.10;79.60
78876;DHT22;68253;52.506;5.486;2024-02-04T00:53:52;9.00;79.40
78876;DHT22;68253;52.506;5.486;2024-02-04T00:56:19;9.00;79.30
78876;DHT22;68253;52.506;5.486;2024-02-04T00:58:45;8.90;79.20
78876;DHT22;68253;52.506;5.486;2024-02-04T01:01:11;8.80;79.20
78876;DHT22;68253;52.506;5.486;2024-02-04T01:03:38;8.80;79.20
78876;DHT22;68253;52.506;5.486;2024-02-04T01:06:04;8.70;79.00
78876;DHT22;68253;52.506;5.486;2024-02-04T01:08:30;8.60;78.90
78876;DHT22;68253;52.506;5.486;2024-02-04T01:10:56;8.60;78.90
78876;DHT22;68253;52.506;5.486;2024-02-04T01:13:22;8.60;78.80
78876;DHT22;68253;52.506;5.486;2024-02-04T01:15:49;8.50;78.70
78876;DHT22;68253;52.506;5.486;2024-02-04T01:18:15;8.50;78.60
78876;DHT22;68253;52.506;5.486;2024-02-04T01:20:41;8.50;78.50
78876;DHT22;68253;52.506;5.486;2024-02-04T01:23:08;8.40;78.50
78876;DHT22;68253;52.506;5.486;2024-02-04T01:25:34;8.40;78.50
78876;DHT22;68253;52.506;5.486;2024-02-04T01:28:00;8.40;78.50
78876;DHT22;68253;52.506;5.486;2024-02-04T01:30:26;8.30;78.40
78876;DHT22;68253;52.506;5.486;2024-02-04T01:32:57;8.30;78.40
78876;DHT22;68253;52.506;5.486;2024-02-04T01:35:23;8.30;78.30
78876;DHT22;68253;52.506;5.486;2024-02-04T01:37:49;8.20;78.40
78876;DHT22;68253;52.506;5.486;2024-02-04T01:40:15;8.20;78.40
78876;DHT22;68253;52.506;5.486;2024-02-04T01:42:41;8.20;78.40
78876;DHT22;68253;52.506;5.486;2024-02-04T01:45:08;8.20;78.50
78876;DHT22;68253;52.506;5.486;2024-02-04T01:47:34;8.20;78.40
78876;DHT22;68253;52.506;5.486;2024-02-04T01:50:01;8.20;78.40
78876;DHT22;68253;52.506;5.486;2024-02-04T01:52:32;8.10;78.40
78876;DHT22;68253;52.506;5.486;2024-02-04T01:55:00;8.10;78.40
78876;DHT22;68253;52.506;5.486;2024-02-04T01:57:27;8.10;78.40
78876;DHT22;68253;52.506;5.486;2024-02-04T01:59:53;8.00;78.30
78876;DHT22;68253;52.506;5.486;2024-02-04T02:02:22;8.00;78.30
78876;DHT22;68253;52.506;5.486;2024-02-04T02:04:49;8.00;78.30
78876;DHT22;68253;52.506;5.486;2024-02-04T02:07:17;8.00;78.30
78876;DHT22;68253;52.506;5.486;2024-02-04T02:09:46;8.00;78.40
78876;DHT22;68253;52.506;5.486;2024-02-04T02:12:18;8.00;78.40
78876;DHT22;68253;52.506;5.486;2024-02-04T02:14:50;8.00;78.40
78876;DHT22;68253;52.506;5.486;2024-02-04T02:17:25;8.10;78.40
78876;DHT22;68253;52.506;5.486;2024-02-04T02:19:59;8.10;78.30
78876;DHT22;68253;52.506;5.486;2024-02-04T02:22:47;8.10;78.30
78876;DHT22;68253;52.506;5.486;2024-02-04T02:25:14;8.10;78.10
78876;DHT22;68253;52.506;5.486;2024-02-04T02:27:49;8.10;77.80
78876;DHT22;68253;52.506;5.486;2024-02-04T02:30:15;8.10;77.70
78876;DHT22;68253;52.506;5.486;2024-02-04T02:32:46;8.00;77.60
78876;DHT22;68253;52.506;5.486;2024-02-04T02:35:14;8.00;77.50
78876;DHT22;68253;52.506;5.486;2024-02-04T02:37:59;8.00;77.40
78876;DHT22;68253;52.506;5.486;2024-02-04T02:40:40;7.90;77.30
78876;DHT22;68253;52.506;5.486;2024-02-04T02:43:10;7.80;77.30
78876;DHT22;68253;52.506;5.486;2024-02-04T02:45:42;7.80;77.20
78876;DHT22;68253;52.506;5.486;2024-02-04T02:48:09;7.80;77.20
78876;DHT22;68253;52.506;5.486;2024-02-04T02:50:36;7.70;77.30
78876;DHT22;68253;52.506;5.486;2024-02-04T02:53:02;7.70;77.30
78876;DHT22;68253;52.506;5.486;2024-02-04T02:55:28;7.60;77.30
78876;DHT22;68253;52.506;5.486;2024-02-04T02:57:54;7.60;77.30
78876;DHT22;68253;52.506;5.486;2024-02-04T03:00:21;7.60;77.30
78876;DHT22;68253;52.506;5.486;2024-02-04T03:02:47;7.60;77.20
78876;DHT22;68253;52.506;5.486;2024-02-04T03:05:15;7.50;77.10
78876;DHT22;68253;52.506;5.486;2024-02-04T03:07:41;7.50;77.10
78876;DHT22;68253;52.506;5.486;2024-02-04T03:10:08;7.50;77.10
78876;DHT22;68253;52.506;5.486;2024-02-04T03:12:35;7.50;77.10
78876;DHT22;68253;52.506;5.486;2024-02-04T03:15:01;7.40;77.10
78876;DHT22;68253;52.506;5.486;2024-02-04T03:17:27;7.40;77.10
78876;DHT22;68253;52.506;5.486;2024-02-04T03:19:53;7.40;77.00
78876;DHT22;68253;52.506;5.486;2024-02-04T03:22:27;7.40;76.80
78876;DHT22;68253;52.506;5.486;2024-02-04T03:24:53;7.40;76.60
78876;DHT22;68253;52.506;5.486;2024-02-04T03:27:20;7.40;76.60
78876;DHT22;68253;52.506;5.486;2024-02-04T03:29:48;7.50;76.50
78876;DHT22;68253;52.506;5.486;2024-02-04T03:32:14;7.50;76.50
78876;DHT22;68253;52.506;5.486;2024-02-04T03:34:43;7.50;76.60
78876;DHT22;68253;52.506;5.486;2024-02-04T03:37:09;7.50;76.70
78876;DHT22;68253;52.506;5.486;2024-02-04T03:39:36;7.50;76.90
78876;DHT22;68253;52.506;5.486;2024-02-04T03:42:02;7.50;77.00
78876;DHT22;68253;52.506;5.486;2024-02-04T03:44:28;7.60;77.00
78876;DHT22;68253;52.506;5.486;2024-02-04T03:46:55;7.60;77.00
78876;DHT22;68253;52.506;5.486;2024-02-04T03:49:21;7.60;77.00
78876;DHT22;68253;52.506;5.486;2024-02-04T03:51:47;7.60;76.90
78876;DHT22;68253;52.506;5.486;2024-02-04T03:54:13;7.60;76.90
78876;DHT22;68253;52.506;5.486;2024-02-04T03:56:39;7.60;76.80
78876;DHT22;68253;52.506;5.486;2024-02-04T03:59:07;7.60;76.70
78876;DHT22;68253;52.506;5.486;2024-02-04T04:01:34;7.60;76.60
78876;DHT22;68253;52.506;5.486;2024-02-04T04:04:01;7.60;76.60
78876;DHT22;68253;52.506;5.486;2024-02-04T04:06:27;7.60;76.30
78876;DHT22;68253;52.506;5.486;2024-02-04T04:08:53;7.60;76.30
78876;DHT22;68253;52.506;5.486;2024-02-04T04:11:19;7.60;76.20
78876;DHT22;68253;52.506;5.486;2024-02-04T04:13:45;7.70;75.90
78876;DHT22;68253;52.506;5.486;2024-02-04T04:16:11;7.60;75.80
78876;DHT22;68253;52.506;5.486;2024-02-04T04:18:38;7.60;75.60
78876;DHT22;68253;52.506;5.486;2024-02-04T04:21:04;7.60;75.50
78876;DHT22;68253;52.506;5.486;2024-02-04T04:23:30;7.60;75.40
78876;DHT22;68253;52.506;5.486;2024-02-04T04:25:56;7.60;75.40
78876;DHT22;68253;52.506;5.486;2024-02-04T04:28:22;7.60;75.40
78876;DHT22;68253;52.506;5.486;2024-02-04T04:30:48;7.60;75.30
78876;DHT22;68253;52.506;5.486;2024-02-04T04:33:14;7.60;75.30
78876;DHT22;68253;52.506;5.486;2024-02-04T04:35:41;7.60;75.20
78876;DHT22;68253;52.506;5.486;2024-02-04T04:38:07;7.60;75.10
78876;DHT22;68253;52.506;5.486;2024-02-04T04:40:33;7.60;75.10
78876;DHT22;68253;52.506;5.486;2024-02-04T04:42:59;7.60;74.70
78876;DHT22;68253;52.506;5.486;2024-02-04T04:45:25;7.60;74.50
78876;DHT22;68253;52.506;5.486;2024-02-04T04:47:51;7.60;74.10
78876;DHT22;68253;52.506;5.486;2024-02-04T04:50:17;7.60;74.10
78876;DHT22;68253;52.506;5.486;2024-02-04T04:52:43;7.60;73.90
78876;DHT22;68253;52.506;5.486;2024-02-04T04:55:09;7.60;73.50
78876;DHT22;68253;52.506;5.486;2024-02-04T04:57:36;7.60;73.00
78876;DHT22;68253;52.506;5.486;2024-02-04T05:00:02;7.70;72.90
78876;DHT22;68253;52.506;5.486;2024-02-04T05:02:32;7.60;72.90
78876;DHT22;68253;52.506;5.486;2024-02-04T05:04:59;7.70;72.70
78876;DHT22;68253;52.506;5.486;2024-02-04T05:07:25;7.70;72.50
78876;DHT22;68253;52.506;5.486;2024-02-04T05:09:52;7.70;72.10
78876;DHT22;68253;52.506;5.486;2024-02-04T05:12:18;7.70;71.90
78876;DHT22;68253;52.506;5.486;2024-02-04T05:14:44;7.70;71.90
78876;DHT22;68253;52.506;5.486;2024-02-04T05:17:10;7.70;71.80
78876;DHT22;68253;52.506;5.486;2024-02-04T05:19:36;7.70;71.50
78876;DHT22;68253;52.506;5.486;2024-02-04T05:22:02;7.70;71.20
78876;DHT22;68253;52.506;5.486;2024-02-04T05:24:28;7.70;70.80
78876;DHT22;68253;52.506;5.486;2024-02-04T05:26:55;7.80;71.00
78876;DHT22;68253;52.506;5.486;2024-02-04T05:29:21;7.80;70.80
78876;DHT22;68253;52.506;5.486;2024-02-04T05:31:47;7.80;70.60
78876;DHT22;68253;52.506;5.486;2024-02-04T05:34:13;7.80;70.50
78876;DHT22;68253;52.506;5.486;2024-02-04T05:36:39;7.80;70.50
78876;DHT22;68253;52.506;5.486;2024-02-04T05:39:14;7.80;70.40
78876;DHT22;68253;52.506;5.486;2024-02-04T05:41:41;7.80;70.70
78876;DHT22;68253;52.506;5.486;2024-02-04T05:44:07;7.80;70.70
78876;DHT22;68253;52.506;5.486;2024-02-04T05:46:38;7.80;70.50
78876;DHT22;68253;52.506;5.486;2024-02-04T05:49:04;7.90;70.20
78876;DHT22;68253;52.506;5.486;2024-02-04T05:51:32;7.80;70.40
78876;DHT22;68253;52.506;5.486;2024-02-04T05:53:59;7.80;70.50
78876;DHT22;68253;52.506;5.486;2024-02-04T05:56:25;7.80;70.70
78876;DHT22;68253;52.506;5.486;2024-02-04T05:58:51;7.80;70.80
78876;DHT22;68253;52.506;5.486;2024-02-04T06:01:17;7.80;70.70
78876;DHT22;68253;52.506;5.486;2024-02-04T06:03:43;7.80;70.80
78876;DHT22;68253;52.506;5.486;2024-02-04T06:06:18;7.80;70.80
78876;DHT22;68253;52.506;5.486;2024-02-04T06:08:46;7.80;70.50
78876;DHT22;68253;52.506;5.486;2024-02-04T06:11:13;7.80;70.50
78876;DHT22;68253;52.506;5.486;2024-02-04T06:13:44;7.80;70.40
78876;DHT22;68253;52.506;5.486;2024-02-04T06:16:10;7.80;70.50
78876;DHT22;68253;52.506;5.486;2024-02-04T06:18:38;7.80;70.70
78876;DHT22;68253;52.506;5.486;2024-02-04T06:21:05;7.80;70.90
78876;DHT22;68253;52.506;5.486;2024-02-04T06:23:32;7.80;71.20
78876;DHT22;68253;52.506;5.486;2024-02-04T06:25:59;7.80;71.40
78876;DHT22;68253;52.506;5.486;2024-02-04T06:28:25;7.80;71.60
78876;DHT22;68253;52.506;5.486;2024-02-04T06:30:52;7.80;71.80
78876;DHT22;68253;52.506;5.486;2024-02-04T06:33:19;7.80;72.10
78876;DHT22;68253;52.506;5.486;2024-02-04T06:35:45;7.80;72.30
78876;DHT22;68253;52.506;5.486;2024-02-04T06:38:12;7.90;72.50
78876;DHT22;68253;52.506;5.486;2024-02-04T06:40:38;7.90;72.70
78876;DHT22;68253;52.506;5.486;2024-02-04T06:43:04;7.90;72.80
78876;DHT22;68253;52.506;5.486;2024-02-04T06:45:30;7.90;72.70
78876;DHT22;68253;52.506;5.486;2024-02-04T06:47:56;8.00;72.70
78876;DHT22;68253;52.506;5.486;2024-02-04T06:50:22;8.00;72.50
78876;DHT22;68253;52.506;5.486;2024-02-04T06:52:48;8.00;72.20
78876;DHT22;68253;52.506;5.486;2024-02-04T06:55:15;8.00;72.00
78876;DHT22;68253;52.506;5.486;2024-02-04T06:57:41;8.00;72.00
78876;DHT22;68253;52.506;5.486;2024-02-04T07:00:07;8.00;71.90
78876;DHT22;68253;52.506;5.486;2024-02-04T07:02:37;8.00;71.90
78876;DHT22;68253;52.506;5.486;2024-02-04T07:05:04;8.00;71.80
78876;DHT22;68253;52.506;5.486;2024-02-04T07:07:30;8.00;71.80
78876;DHT22;68253;52.506;5.486;2024-02-04T07:09:57;8.00;71.90
78876;DHT22;68253;52.506;5.486;2024-02-04T07:12:24;8.10;72.00
78876;DHT22;68253;52.506;5.486;2024-02-04T07:14:50;8.00;72.00
78876;DHT22;68253;52.506;5.486;2024-02-04T07:17:16;8.10;72.10
78876;DHT22;68253;52.506;5.486;2024-02-04T07:19:42;8.10;72.20
78876;DHT22;68253;52.506;5.486;2024-02-04T07:22:08;8.10;72.40
78876;DHT22;68253;52.506;5.486;2024-02-04T07:24:35;8.10;72.40
78876;DHT22;68253;52.506;5.486;2024-02-04T07:27:01;8.20;72.50
78876;DHT22;68253;52.506;5.486;2024-02-04T07:29:27;8.20;72.50
78876;DHT22;68253;52.506;5.486;2024-02-04T07:31:53;8.30;72.60
78876;DHT22;68253;52.506;5.486;2024-02-04T07:34:19;8.30;72.50
78876;DHT22;68253;52.506;5.486;2024-02-04T07:36:45;8.30;72.50
78876;DHT22;68253;52.506;5.486;2024-02-04T07:39:12;8.30;72.30
78876;DHT22;68253;52.506;5.486;2024-02-04T07:41:38;8.30;72.20
78876;DHT22;68253;52.506;5.486;2024-02-04T07:44:04;8.40;71.90
78876;DHT22;68253;52.506;5.486;2024-02-04T07:46:30;8.40;71.90
78876;DHT22;68253;52.506;5.486;2024-02-04T07:48:57;8.40;71.90
78876;DHT22;68253;52.506;5.486;2024-02-04T07:51:23;8.40;71.90
78876;DHT22;68253;52.506;5.486;2024-02-04T07:53:49;8.40;71.50
78876;DHT22;68253;52.506;5.486;2024-02-04T07:56:15;8.50;71.20
78876;DHT22;68253;52.506;5.486;2024-02-04T07:58:41;8.50;70.90
78876;DHT22;68253;52.506;5.486;2024-02-04T08:01:08;8.60;70.50
78876;DHT22;68253;52.506;5.486;2024-02-04T08:03:34;8.60;70.30
78876;DHT22;68253;52.506;5.486;2024-02-04T08:06:01;8.60;70.20
78876;DHT22;68253;52.506;5.486;2024-02-04T08:08:28;8.60;70.20
78876;DHT22;68253;52.506;5.486;2024-02-04T08:10:54;8.60;70.20
78876;DHT22;68253;52.506;5.486;2024-02-04T08:13:21;8.60;70.20
78876;DHT22;68253;52.506;5.486;2024-02-04T08:15:47;8.60;70.40
78876;DHT22;68253;52.506;5.486;2024-02-04T08:18:13;8.70;70.60
78876;DHT22;68253;52.506;5.486;2024-02-04T08:20:39;8.60;71.00
78876;DHT22;68253;52.506;5.486;2024-02-04T08:23:05;8.70;71.60
78876;DHT22;68253;52.506;5.486;2024-02-04T08:25:31;8.60;72.50
78876;DHT22;68253;52.506;5.486;2024-02-04T08:27:58;8.70;73.00
78876;DHT22;68253;52.506;5.486;2024-02-04T08:30:24;8.70;73.40
78876;DHT22;68253;52.506;5.486;2024-02-04T08:32:50;8.80;73.80
78876;DHT22;68253;52.506;5.486;2024-02-04T08:35:16;8.80;74.20
78876;DHT22;68253;52.506;5.486;2024-02-04T08:37:42;8.80;74.50
78876;DHT22;68253;52.506;5.486;2024-02-04T08:40:09;8.80;74.80
78876;DHT22;68253;52.506;5.486;2024-02-04T08:42:36;8.80;75.20
78876;DHT22;68253;52.506;5.486;2024-02-04T08:45:02;8.80;75.30
78876;DHT22;68253;52.506;5.486;2024-02-04T08:47:28;8.80;75.40
78876;DHT22;68253;52.506;5.486;2024-02-04T08:49:55;8.90;75.50
78876;DHT22;68253;52.506;5.486;2024-02-04T08:52:21;8.90;75.40
78876;DHT22;68253;52.506;5.486;2024-02-04T08:54:47;8.90;75.40
78876;DHT22;68253;52.506;5.486;2024-02-04T08:57:13;8.90;75.50
78876;DHT22;68253;52.506;5.486;2024-02-04T08:59:40;8.90;75.40
78876;DHT22;68253;52.506;5.486;2024-02-04T09:02:06;8.90;75.30
78876;DHT22;68253;52.506;5.486;2024-02-04T09:04:32;8.90;75.30
78876;DHT22;68253;52.506;5.486;2024-02-04T09:06:58;9.00;75.30
78876;DHT22;68253;52.506;5.486;2024-02-04T09:09:24;9.00;75.10
78876;DHT22;68253;52.506;5.486;2024-02-04T09:11:51;9.00;75.20
78876;DHT22;68253;52.506;5.486;2024-02-04T09:14:17;9.10;75.10
78876;DHT22;68253;52.506;5.486;2024-02-04T09:16:43;9.10;75.00
78876;DHT22;68253;52.506;5.486;2024-02-04T09:19:09;9.20;74.90
78876;DHT22;68253;52.506;5.486;2024-02-04T09:21:35;9.20;74.90
78876;DHT22;68253;52.506;5.486;2024-02-04T09:24:01;9.20;74.90
78876;DHT22;68253;52.506;5.486;2024-02-04T09:26:27;9.20;74.80
78876;DHT22;68253;52.506;5.486;2024-02-04T09:28:53;9.20;74.80
78876;DHT22;68253;52.506;5.486;2024-02-04T09:31:19;9.10;74.80
78876;DHT22;68253;52.506;5.486;2024-02-04T09:33:45;9.10;75.00
78876;DHT22;68253;52.506;5.486;2024-02-04T09:36:12;9.10;75.00
78876;DHT22;68253;52.506;5.486;2024-02-04T09:38:38;9.10;75.10
78876;DHT22;68253;52.506;5.486;2024-02-04T09:41:04;9.20;75.30
78876;DHT22;68253;52.506;5.486;2024-02-04T09:43:35;9.20;75.40
78876;DHT22;68253;52.506;5.486;2024-02-04T09:46:01;9.20;75.40
78876;DHT22;68253;52.506;5.486;2024-02-04T09:48:31;9.30;75.50
78876;DHT22;68253;52.506;5.486;2024-02-04T09:50:59;9.30;75.50
78876;DHT22;68253;52.506;5.486;2024-02-04T09:53:44;9.30;75.90
78876;DHT22;68253;52.506;5.486;2024-02-04T09:56:12;9.30;76.00
78876;DHT22;68253;52.506;5.486;2024-02-04T09:58:38;9.30;76.10
78876;DHT22;68253;52.506;5.486;2024-02-04T10:01:04;9.40;76.20
78876;DHT22;68253;52.506;5.486;2024-02-04T10:03:33;9.40;76.30
78876;DHT22;68253;52.506;5.486;2024-02-04T10:06:00;9.30;76.30
78876;DHT22;68253;52.506;5.486;2024-02-04T10:08:26;9.30;76.40
78876;DHT22;68253;52.506;5.486;2024-02-04T10:10:52;9.30;76.50
78876;DHT22;68253;52.506;5.486;2024-02-04T10:13:20;9.40;76.40
78876;DHT22;68253;52.506;5.486;2024-02-04T10:15:48;9.30;76.50
78876;DHT22;68253;52.506;5.486;2024-02-04T10:18:16;9.30;76.50
78876;DHT22;68253;52.506;5.486;2024-02-04T10:20:43;9.30;76.60
78876;DHT22;68253;52.506;5.486;2024-02-04T10:23:09;9.40;76.70
78876;DHT22;68253;52.506;5.486;2024-02-04T10:25:35;9.40;76.70
78876;DHT22;68253;52.506;5.486;2024-02-04T10:28:02;9.40;76.70
78876;DHT22;68253;52.506;5.486;2024-02-04T10:30:28;9.40;76.50
78876;DHT22;68253;52.506;5.486;2024-02-04T10:32:55;9.50;76.40
78876;DHT22;68253;52.506;5.486;2024-02-04T10:35:21;9.50;76.10
78876;DHT22;68253;52.506;5.486;2024-02-04T10:37:49;9.60;75.90
78876;DHT22;68253;52.506;5.486;2024-02-04T10:40:16;9.60;75.50
78876;DHT22;68253;52.506;5.486;2024-02-04T10:42:44;9.60;75.30
78876;DHT22;68253;52.506;5.486;2024-02-04T10:45:10;9.70;75.10
78876;DHT22;68253;52.506;5.486;2024-02-04T10:47:40;9.70;74.60
78876;DHT22;68253;52.506;5.486;2024-02-04T10:50:07;9.70;74.40
78876;DHT22;68253;52.506;5.486;2024-02-04T10:52:38;9.70;74.30
78876;DHT22;68253;52.506;5.486;2024-02-04T10:55:09;9.70;74.00
78876;DHT22;68253;52.506;5.486;2024-02-04T10:57:37;9.70;73.70
78876;DHT22;68253;52.506;5.486;2024-02-04T11:00:04;9.60;73.80
78876;DHT22;68253;52.506;5.486;2024-02-04T11:02:34;9.60;73.50
78876;DHT22;68253;52.506;5.486;2024-02-04T11:05:02;9.70;73.30
78876;DHT22;68253;52.506;5.486;2024-02-04T11:07:31;9.60;73.30
78876;DHT22;68253;52.506;5.486;2024-02-04T11:09:58;9.60;73.40
78876;DHT22;68253;52.506;5.486;2024-02-04T11:12:25;9.60;73.60
78876;DHT22;68253;52.506;5.486;2024-02-04T11:14:54;9.70;73.70
78876;DHT22;68253;52.506;5.486;2024-02-04T11:20:46;9.70;73.70
78876;DHT22;68253;52.506;5.486;2024-02-04T11:24:05;9.80;73.30
78876;DHT22;68253;52.506;5.486;2024-02-04T11:26:34;9.80;73.00
78876;DHT22;68253;52.506;5.486;2024-02-04T11:29:01;9.80;72.90
78876;DHT22;68253;52.506;5.486;2024-02-04T11:31:28;9.80;73.00
78876;DHT22;68253;52.506;5.486;2024-02-04T11:33:54;9.80;73.00
78876;DHT22;68253;52.506;5.486;2024-02-04T11:36:24;9.80;73.20
78876;DHT22;68253;52.506;5.486;2024-02-04T11:38:51;9.80;73.40
78876;DHT22;68253;52.506;5.486;2024-02-04T11:41:24;9.80;73.60
78876;DHT22;68253;52.506;5.486;2024-02-04T11:43:53;9.80;73.80
78876;DHT22;68253;52.506;5.486;2024-02-04T11:46:20;9.90;73.90
78876;DHT22;68253;52.506;5.486;2024-02-04T11:48:52;10.00;74.10
78876;DHT22;68253;52.506;5.486;2024-02-04T11:51:22;10.00;74.20
78876;DHT22;68253;52.506;5.486;2024-02-04T11:53:51;10.00;74.30
78876;DHT22;68253;52.506;5.486;2024-02-04T11:56:23;10.00;74.30
78876;DHT22;68253;52.506;5.486;2024-02-04T11:58:49;10.10;74.20
78876;DHT22;68253;52.506;5.486;2024-02-04T12:01:16;10.10;74.00
78876;DHT22;68253;52.506;5.486;2024-02-04T12:03:43;10.20;73.70
78876;DHT22;68253;52.506;5.486;2024-02-04T12:06:09;10.20;73.60
78876;DHT22;68253;52.506;5.486;2024-02-04T12:08:37;10.30;73.40
78876;DHT22;68253;52.506;5.486;2024-02-04T12:11:04;10.30;73.50
78876;DHT22;68253;52.506;5.486;2024-02-04T12:13:31;10.40;73.50
78876;DHT22;68253;52.506;5.486;2024-02-04T12:15:58;10.40;73.20
78876;DHT22;68253;52.506;5.486;2024-02-04T12:18:24;10.50;73.20
78876;DHT22;68253;52.506;5.486;2024-02-04T12:20:50;10.50;73.20
78876;DHT22;68253;52.506;5.486;2024-02-04T12:23:17;10.60;73.30
78876;DHT22;68253;52.506;5.486;2024-02-04T12:25:47;10.60;73.10
78876;DHT22;68253;52.506;5.486;2024-02-04T12:28:14;10.70;73.10
78876;DHT22;68253;52.506;5.486;2024-02-04T12:30:40;10.70;73.00
78876;DHT22;68253;52.506;5.486;2024-02-04T12:33:06;10.70;73.10
78876;DHT22;68253;52.506;5.486;2024-02-04T12:35:33;10.70;73.00
78876;DHT22;68253;52.506;5.486;2024-02-04T12:37:59;10.70;72.90
78876;DHT22;68253;52.506;5.486;2024-02-04T12:40:26;10.70;72.90
78876;DHT22;68253;52.506;5.486;2024-02-04T12:43:02;10.70;72.60
78876;DHT22;68253;52.506;5.486;2024-02-04T12:45:29;10.60;72.50
78876;DHT22;68253;52.506;5.486;2024-02-04T12:47:56;10.60;72.40
78876;DHT22;68253;52.506;5.486;2024-02-04T12:50:24;10.60;72.30
78876;DHT22;68253;52.506;5.486;2024-02-04T12:53:03;10.50;72.40
78876;DHT22;68253;52.506;5.486;2024-02-04T12:55:31;10.50;72.20
78876;DHT22;68253;52.506;5.486;2024-02-04T12:58:07;10.50;72.10
78876;DHT22;68253;52.506;5.486;2024-02-04T13:00:35;10.40;72.00
78876;DHT22;68253;52.506;5.486;2024-02-04T13:03:02;10.40;71.60
78876;DHT22;68253;52.506;5.486;2024-02-04T13:05:28;10.30;71.50
78876;DHT22;68253;52.506;5.486;2024-02-04T13:08:01;10.30;71.80
78876;DHT22;68253;52.506;5.486;2024-02-04T13:10:29;10.20;71.90
78876;DHT22;68253;52.506;5.486;2024-02-04T13:13:09;10.20;72.00
78876;DHT22;68253;52.506;5.486;2024-02-04T13:15:40;10.20;72.10
78876;DHT22;68253;52.506;5.486;2024-02-04T13:18:07;10.20;72.40
78876;DHT22;68253;52.506;5.486;2024-02-04T13:20:34;10.10;72.80
78876;DHT22;68253;52.506;5.486;2024-02-04T13:23:00;10.20;73.10
78876;DHT22;68253;52.506;5.486;2024-02-04T13:25:32;10.10;73.50
78876;DHT22;68253;52.506;5.486;2024-02-04T13:27:58;10.10;74.00
78876;DHT22;68253;52.506;5.486;2024-02-04T13:30:25;10.00;74.70
78876;DHT22;68253;52.506;5.486;2024-02-04T13:32:52;10.00;75.20
78876;DHT22;68253;52.506;5.486;2024-02-04T13:35:18;10.00;75.60
78876;DHT22;68253;52.506;5.486;2024-02-04T13:37:46;10.00;75.90
78876;DHT22;68253;52.506;5.486;2024-02-04T13:40:14;9.90;76.40
78876;DHT22;68253;52.506;5.486;2024-02-04T13:42:41;9.80;76.70
78876;DHT22;68253;52.506;5.486;2024-02-04T13:45:07;9.80;77.00
78876;DHT22;68253;52.506;5.486;2024-02-04T13:47:34;9.70;77.40
78876;DHT22;68253;52.506;5.486;2024-02-04T13:50:01;9.70;77.70
78876;DHT22;68253;52.506;5.486;2024-02-04T13:52:28;9.60;78.00
78876;DHT22;68253;52.506;5.486;2024-02-04T13:54:54;9.60;78.20
78876;DHT22;68253;52.506;5.486;2024-02-04T13:57:20;9.60;78.40
78876;DHT22;68253;52.506;5.486;2024-02-04T13:59:47;9.50;78.50
78876;DHT22;68253;52.506;5.486;2024-02-04T14:02:13;9.50;78.50
78876;DHT22;68253;52.506;5.486;2024-02-04T14:04:39;9.50;78.70
78876;DHT22;68253;52.506;5.486;2024-02-04T14:07:05;9.50;78.70
78876;DHT22;68253;52.506;5.486;2024-02-04T14:09:31;9.50;78.60
78876;DHT22;68253;52.506;5.486;2024-02-04T14:11:58;9.50;78.60
78876;DHT22;68253;52.506;5.486;2024-02-04T14:14:24;9.50;78.50
78876;DHT22;68253;52.506;5.486;2024-02-04T14:16:50;9.50;78.50
78876;DHT22;68253;52.506;5.486;2024-02-04T14:19:18;9.60;78.50
78876;DHT22;68253;52.506;5.486;2024-02-04T14:21:44;9.60;78.30
78876;DHT22;68253;52.506;5.486;2024-02-04T14:24:11;9.50;78.40
78876;DHT22;68253;52.506;5.486;2024-02-04T14:26:37;9.60;78.40
78876;DHT22;68253;52.506;5.486;2024-02-04T14:29:03;9.60;78.40
78876;DHT22;68253;52.506;5.486;2024-02-04T14:31:29;9.60;78.40
78876;DHT22;68253;52.506;5.486;2024-02-04T14:33:55;9.50;78.40
78876;DHT22;68253;52.506;5.486;2024-02-04T14:36:22;9.50;78.50
78876;DHT22;68253;52.506;5.486;2024-02-04T14:38:48;9.50;78.50
78876;DHT22;68253;52.506;5.486;2024-02-04T14:41:14;9.60;78.60
78876;DHT22;68253;52.506;5.486;2024-02-04T14:43:40;9.60;78.60
78876;DHT22;68253;52.506;5.486;2024-02-04T14:46:06;9.60;78.50
78876;DHT22;68253;52.506;5.486;2024-02-04T14:48:36;9.60;78.50
78876;DHT22;68253;52.506;5.486;2024-02-04T14:51:02;9.70;78.40
78876;DHT22;68253;52.506;5.486;2024-02-04T14:53:29;9.70;78.30
78876;DHT22;68253;52.506;5.486;2024-02-04T14:55:55;9.70;78.30
78876;DHT22;68253;52.506;5.486;2024-02-04T14:58:24;9.70;78.20
78876;DHT22;68253;52.506;5.486;2024-02-04T15:00:50;9.70;78.10
78876;DHT22;68253;52.506;5.486;2024-02-04T15:03:16;9.70;78.10
78876;DHT22;68253;52.506;5.486;2024-02-04T15:05:42;9.70;78.10
78876;DHT22;68253;52.506;5.486;2024-02-04T15:08:08;9.70;78.00
78876;DHT22;68253;52.506;5.486;2024-02-04T15:10:34;9.70;78.00
78876;DHT22;68253;52.506;5.486;2024-02-04T15:13:01;9.70;78.10
78876;DHT22;68253;52.506;5.486;2024-02-04T15:15:27;9.70;78.00
78876;DHT22;68253;52.506;5.486;2024-02-04T15:17:53;9.80;78.00
78876;DHT22;68253;52.506;5.486;2024-02-04T15:20:20;9.80;77.80
78876;DHT22;68253;52.506;5.486;2024-02-04T15:22:49;9.80;77.70
78876;DHT22;68253;52.506;5.486;2024-02-04T15:25:15;9.80;77.70
78876;DHT22;68253;52.506;5.486;2024-02-04T15:27:46;9.80;77.60
78876;DHT22;68253;52.506;5.486;2024-02-04T15:30:13;9.80;77.60
78876;DHT22;68253;52.506;5.486;2024-02-04T15:32:40;9.80;77.60
78876;DHT22;68253;52.506;5.486;2024-02-04T15:35:06;9.80;77.60
78876;DHT22;68253;52.506;5.486;2024-02-04T15:37:33;9.80;77.60
78876;DHT22;68253;52.506;5.486;2024-02-04T15:39:59;9.80;77.50
78876;DHT22;68253;52.506;5.486;2024-02-04T15:42:26;9.80;77.40
78876;DHT22;68253;52.506;5.486;2024-02-04T15:44:52;9.80;77.30
78876;DHT22;68253;52.506;5.486;2024-02-04T15:47:18;9.80;77.30